createdAt,value
2022-11-05T00:00:19.564Z,13.70
2022-11-05T00:03:04.850Z,12.43
2022-11-05T00:05:50.333Z,12.33
2022-11-05T00:08:43.315Z,11.87
2022-11-05T00:11:16.874Z,11.17
2022-11-05T00:14:03.688Z,12.23
2022-11-05T00:16:45.446Z,10.30
2022-11-05T00:19:13.395Z,12.00
2022-11-05T00:21:58.460Z,12.30
2022-11-05T00:24:43.839Z,9.90
2022-11-05T00:27:11.018Z,10.60
2022-11-05T00:29:37.545Z,9.03
2022-11-05T00:32:04.314Z,9.60
2022-11-05T00:34:30.860Z,12.23
2022-11-05T00:36:57.437Z,12.40
2022-11-05T00:39:23.980Z,10.77
2022-11-05T00:42:10.522Z,13.37
2022-11-05T00:44:55.577Z,9.93
2022-11-05T00:47:41.021Z,10.67
2022-11-05T00:50:07.973Z,10.77
2022-11-05T00:52:53.156Z,10.40
2022-11-05T00:55:19.691Z,9.57
2022-11-05T00:57:46.567Z,11.20
2022-11-05T01:00:13.715Z,13.23
2022-11-05T01:02:40.333Z,10.37
2022-11-05T01:05:07.306Z,8.13
2022-11-05T01:07:33.934Z,8.27
2022-11-05T01:10:00.508Z,9.97
2022-11-05T01:12:27.121Z,13.37
2022-11-05T01:14:53.663Z,9.90
2022-11-05T01:17:20.222Z,11.07
2022-11-05T01:19:46.760Z,10.20
2022-11-05T01:22:13.608Z,9.10
2022-11-05T01:24:40.150Z,9.40
2022-11-05T01:27:06.741Z,7.63
2022-11-05T01:29:33.355Z,11.87
2022-11-05T01:31:59.922Z,11.90
2022-11-05T01:34:26.504Z,12.57
2022-11-05T01:36:53.071Z,12.60
2022-11-05T01:39:19.626Z,11.87
2022-11-05T01:41:46.226Z,10.40
2022-11-05T01:44:50.630Z,10.57
2022-11-05T01:47:42.686Z,15.07
2022-11-05T01:50:28.383Z,14.57
2022-11-05T01:53:02.113Z,13.30
2022-11-05T01:55:33.897Z,10.90
2022-11-05T01:58:02.910Z,9.80
2022-11-05T02:00:29.540Z,9.37
2022-11-05T02:02:56.202Z,12.23
2022-11-05T02:05:22.978Z,9.90
2022-11-05T02:07:50.812Z,10.47
2022-11-05T02:10:19.028Z,9.37
2022-11-05T02:12:48.194Z,12.90
2022-11-05T02:15:27.490Z,9.73
2022-11-05T02:18:19.782Z,13.93
2022-11-05T02:21:11.610Z,10.07
2022-11-05T02:24:01.737Z,10.30
2022-11-05T02:26:57.401Z,8.33
2022-11-05T02:29:51.458Z,10.27
2022-11-05T02:32:37.660Z,10.80
2022-11-05T02:35:18.876Z,8.13
2022-11-05T02:37:54.977Z,12.50
2022-11-05T02:40:31.344Z,9.63
2022-11-05T02:43:36.775Z,8.83
2022-11-05T02:46:14.943Z,11.37
2022-11-05T02:48:53.858Z,14.80
2022-11-05T02:51:36.991Z,14.13
2022-11-05T02:54:36.793Z,11.83
2022-11-05T02:57:04.164Z,11.07
2022-11-05T02:59:30.993Z,11.13
2022-11-05T03:01:59.627Z,10.97
2022-11-05T03:04:27.379Z,16.97
2022-11-05T03:07:13.942Z,14.77
2022-11-05T03:09:58.494Z,11.37
2022-11-05T03:12:56.973Z,14.33
2022-11-05T03:15:34.445Z,13.13
2022-11-05T03:18:26.516Z,12.47
2022-11-05T03:21:06.572Z,14.63
2022-11-05T03:23:38.710Z,16.30
2022-11-05T03:26:28.374Z,14.33
2022-11-05T03:29:00.899Z,16.77
2022-11-05T03:31:30.055Z,10.43
2022-11-05T03:33:59.455Z,11.73
2022-11-05T03:36:32.133Z,11.80
2022-11-05T03:39:04.918Z,15.93
2022-11-05T03:41:33.552Z,15.20
2022-11-05T03:44:05.836Z,14.40
2022-11-05T03:46:47.923Z,11.20
2022-11-05T03:49:20.841Z,11.53
2022-11-05T03:52:06.189Z,13.07
2022-11-05T03:54:34.003Z,14.93
2022-11-05T03:57:15.194Z,14.57
2022-11-05T03:59:45.070Z,15.03
2022-11-05T04:02:14.565Z,15.60
2022-11-05T04:04:41.933Z,12.27
2022-11-05T04:07:28.867Z,15.73
2022-11-05T04:10:14.362Z,15.43
2022-11-05T04:12:59.794Z,15.00
2022-11-05T04:15:27.074Z,15.63
2022-11-05T04:17:53.997Z,12.70
2022-11-05T04:20:39.073Z,18.67
2022-11-05T04:23:45.741Z,19.77
2022-11-05T04:26:12.273Z,18.90
2022-11-05T04:28:57.389Z,19.93
2022-11-05T04:31:23.931Z,18.87
2022-11-05T04:33:50.476Z,15.53
2022-11-05T04:36:17.074Z,19.10
2022-11-05T04:38:43.634Z,18.10
2022-11-05T04:41:15.255Z,19.43
2022-11-05T04:43:41.978Z,16.73
2022-11-05T04:46:08.841Z,15.97
2022-11-05T04:48:36.269Z,20.57
2022-11-05T04:51:03.756Z,18.87
2022-11-05T04:53:31.061Z,20.53
2022-11-05T04:56:11.878Z,14.00
2022-11-05T04:58:40.227Z,16.73
2022-11-05T05:01:11.227Z,20.53
2022-11-05T05:03:37.817Z,12.30
2022-11-05T05:06:04.491Z,16.50
2022-11-05T05:08:31.044Z,16.13
2022-11-05T05:11:02.240Z,15.90
2022-11-05T05:13:28.869Z,20.93
2022-11-05T05:15:55.440Z,20.47
2022-11-05T05:18:22.022Z,14.20
2022-11-05T05:21:07.585Z,16.57
2022-11-05T05:23:34.119Z,13.63
2022-11-05T05:26:00.735Z,14.97
2022-11-05T05:28:28.010Z,17.70
2022-11-05T05:30:59.281Z,16.03
2022-11-05T05:33:26.878Z,16.47
2022-11-05T05:35:53.598Z,17.80
2022-11-05T05:38:20.133Z,16.63
2022-11-05T05:40:46.787Z,19.27
2022-11-05T05:43:13.549Z,14.97
2022-11-05T05:45:40.270Z,19.93
2022-11-05T05:48:06.833Z,14.57
2022-11-05T05:50:33.426Z,18.60
2022-11-05T05:53:00.001Z,17.90
2022-11-05T05:55:26.541Z,17.47
2022-11-05T05:57:54.524Z,18.67
2022-11-05T06:00:21.176Z,16.63
2022-11-05T06:02:47.816Z,15.90
2022-11-05T06:05:14.503Z,21.70
2022-11-05T06:07:41.076Z,13.60
2022-11-05T06:10:07.911Z,12.67
2022-11-05T06:12:34.505Z,15.37
2022-11-05T06:15:01.079Z,15.23
2022-11-05T06:17:27.688Z,17.50
2022-11-05T06:19:54.238Z,17.00
2022-11-05T06:22:20.795Z,18.47
2022-11-05T06:24:47.333Z,27.87
2022-11-05T06:27:13.858Z,13.03
2022-11-05T06:29:40.473Z,22.50
2022-11-05T06:32:07.009Z,16.20
2022-11-05T06:34:33.550Z,18.07
2022-11-05T06:37:00.109Z,15.20
2022-11-05T06:39:26.641Z,18.13
2022-11-05T06:44:39.721Z,22.47
2022-11-05T06:47:06.728Z,15.93
2022-11-05T06:49:33.255Z,18.80
2022-11-05T06:51:59.806Z,15.13
2022-11-05T06:54:26.336Z,14.97
2022-11-05T06:56:52.872Z,14.93
2022-11-05T06:59:19.418Z,15.70
2022-11-05T07:01:46.113Z,13.77
2022-11-05T07:04:12.837Z,15.80
2022-11-05T07:06:39.406Z,16.03
2022-11-05T07:09:05.976Z,15.77
2022-11-05T07:11:32.571Z,15.47
2022-11-05T07:14:01.246Z,21.37
2022-11-05T07:16:27.805Z,15.37
2022-11-05T07:18:55.815Z,14.97
2022-11-05T07:21:22.470Z,14.23
2022-11-05T07:23:49.126Z,16.03
2022-11-05T07:26:15.784Z,16.50
2022-11-05T07:28:42.390Z,17.27
2022-11-05T07:31:08.988Z,16.20
2022-11-05T07:33:36.801Z,14.10
2022-11-05T07:36:03.630Z,11.07
2022-11-05T07:38:30.888Z,16.73
2022-11-05T07:41:00.190Z,15.67
2022-11-05T07:43:26.746Z,15.43
2022-11-05T07:45:53.362Z,20.43
2022-11-05T07:48:20.001Z,14.37
2022-11-05T07:50:51.670Z,20.53
2022-11-05T07:53:18.595Z,13.30
2022-11-05T07:55:46.400Z,18.50
2022-11-05T07:58:14.156Z,14.53
2022-11-05T08:00:40.958Z,14.77
2022-11-05T08:03:13.591Z,16.43
2022-11-05T08:05:46.319Z,22.83
2022-11-05T08:08:18.749Z,19.70
2022-11-05T08:10:45.736Z,18.40
2022-11-05T08:13:13.324Z,14.50
2022-11-05T08:15:40.921Z,16.50
2022-11-05T08:18:11.690Z,11.37
2022-11-05T08:20:39.314Z,15.37
2022-11-05T08:23:05.855Z,14.87
2022-11-05T08:25:33.035Z,15.17
2022-11-05T08:28:05.620Z,15.47
2022-11-05T08:30:33.050Z,17.13
2022-11-05T08:33:05.002Z,12.47
2022-11-05T08:35:31.618Z,14.20
2022-11-05T08:38:00.522Z,19.83
2022-11-05T08:40:27.474Z,12.90
2022-11-05T08:42:57.493Z,14.23
2022-11-05T08:45:24.861Z,16.40
2022-11-05T08:47:51.467Z,20.77
2022-11-05T08:50:18.070Z,15.83
2022-11-05T08:52:44.601Z,13.10
2022-11-05T08:55:11.159Z,19.67
2022-11-05T08:57:37.734Z,13.90
2022-11-05T09:00:04.730Z,12.63
2022-11-05T09:02:31.313Z,12.17
2022-11-05T09:04:57.919Z,15.67
2022-11-05T09:07:24.922Z,7.97
2022-11-05T09:09:51.487Z,19.73
2022-11-05T09:12:18.017Z,15.40
2022-11-05T09:14:44.625Z,12.10
2022-11-05T09:17:19.727Z,12.47
2022-11-05T09:19:47.136Z,16.00
2022-11-05T09:22:14.204Z,12.27
2022-11-05T09:24:44.247Z,11.43
2022-11-05T09:27:13.274Z,13.87
2022-11-05T09:29:40.494Z,10.80
2022-11-05T09:32:07.723Z,15.17
2022-11-05T09:34:35.075Z,14.67
2022-11-05T09:37:01.837Z,13.40
2022-11-05T09:39:28.382Z,12.23
2022-11-05T09:42:00.984Z,11.13
2022-11-05T09:44:40.302Z,13.87
2022-11-05T09:47:14.163Z,11.23
2022-11-05T09:49:48.484Z,15.60
2022-11-05T09:52:20.660Z,14.47
2022-11-05T09:54:50.162Z,11.93
2022-11-05T09:57:23.221Z,13.50
2022-11-05T09:59:53.231Z,11.63
2022-11-05T10:02:35.810Z,11.37
2022-11-05T10:05:10.058Z,7.63
2022-11-05T10:07:59.231Z,14.80
2022-11-05T10:10:47.094Z,10.83
2022-11-05T10:13:37.538Z,13.20
2022-11-05T10:16:28.330Z,15.33
2022-11-05T10:19:09.723Z,7.50
2022-11-05T10:22:04.794Z,8.43
2022-11-05T10:24:24.530Z,9.43
2022-11-05T10:26:53.254Z,10.87
2022-11-05T10:29:29.539Z,7.17
2022-11-05T10:32:01.110Z,7.03
2022-11-05T10:34:32.994Z,11.37
2022-11-05T10:36:59.853Z,15.50
2022-11-05T10:39:27.880Z,12.27
2022-11-05T10:42:24.076Z,10.17
2022-11-05T10:45:09.253Z,9.90
2022-11-05T10:47:52.246Z,5.83
2022-11-05T10:50:23.074Z,6.87
2022-11-05T10:52:55.210Z,8.17
2022-11-05T10:55:25.980Z,13.70
2022-11-05T10:57:53.115Z,6.30
2022-11-05T11:00:21.794Z,7.77
2022-11-05T11:02:57.529Z,10.53
2022-11-05T11:05:31.352Z,7.70
2022-11-05T11:08:12.596Z,7.60
2022-11-05T11:10:54.871Z,9.27
2022-11-05T11:13:27.982Z,10.63
2022-11-05T11:15:55.445Z,9.70
2022-11-05T11:18:38.859Z,9.63
2022-11-05T11:21:16.814Z,12.63
2022-11-05T11:23:52.875Z,9.60
2022-11-05T11:26:21.667Z,8.27
2022-11-05T11:28:55.861Z,10.53
2022-11-05T11:31:25.087Z,9.83
2022-11-05T11:34:04.158Z,8.80
2022-11-05T11:36:38.308Z,10.60
2022-11-05T11:39:06.854Z,9.43
2022-11-05T11:41:39.713Z,10.20
2022-11-05T11:44:19.196Z,10.40
2022-11-05T11:46:49.970Z,10.70
2022-11-05T11:49:45.842Z,9.47
2022-11-05T11:52:24.144Z,10.47
2022-11-05T11:54:52.132Z,6.10
2022-11-05T11:57:27.217Z,10.50
2022-11-05T12:00:08.482Z,5.77
2022-11-05T12:02:47.480Z,8.97
2022-11-05T12:05:28.836Z,7.20
2022-11-05T12:08:00.377Z,4.47
2022-11-05T12:10:59.390Z,4.53
2022-11-05T12:13:41.386Z,7.03
2022-11-05T12:16:15.987Z,5.37
2022-11-05T12:18:42.498Z,7.23
2022-11-05T12:21:58.926Z,8.90
2022-11-05T12:24:51.691Z,10.27
2022-11-05T12:27:59.201Z,8.70
2022-11-05T12:30:27.745Z,6.37
2022-11-05T12:33:26.248Z,5.07
2022-11-05T12:36:10.135Z,6.10
2022-11-05T12:38:48.554Z,7.03
2022-11-05T12:41:26.242Z,8.80
2022-11-05T12:44:30.194Z,10.00
2022-11-05T12:47:20.997Z,5.13
2022-11-05T12:50:03.977Z,7.83
2022-11-05T12:52:46.560Z,3.83
2022-11-05T12:55:21.946Z,6.47
2022-11-05T12:57:54.327Z,7.57
2022-11-05T13:00:23.830Z,6.53
2022-11-05T13:03:19.054Z,4.87
2022-11-05T13:05:50.939Z,6.57
2022-11-05T13:08:27.821Z,8.17
2022-11-05T13:11:12.722Z,6.30
2022-11-05T13:13:51.815Z,6.27
2022-11-05T13:16:48.944Z,7.17
2022-11-05T13:19:29.442Z,6.00
2022-11-05T13:22:33.530Z,9.13
2022-11-05T13:25:10.505Z,9.33
2022-11-05T13:28:02.441Z,4.53
2022-11-05T13:30:43.818Z,5.60
2022-11-05T13:33:20.167Z,6.80
2022-11-05T13:36:27.265Z,5.63
2022-11-05T13:39:07.124Z,7.53
2022-11-05T13:42:12.439Z,7.10
2022-11-05T13:44:52.652Z,5.90
2022-11-05T13:48:02.111Z,7.53
2022-11-05T13:50:47.280Z,7.23
2022-11-05T13:53:51.376Z,8.43
2022-11-05T13:56:50.959Z,5.23
2022-11-05T13:59:49.564Z,7.17
2022-11-05T14:02:36.597Z,9.50
2022-11-05T14:05:05.439Z,5.17
2022-11-05T14:07:36.321Z,5.67
2022-11-05T14:10:23.481Z,5.23
2022-11-05T14:12:52.608Z,4.90
2022-11-05T14:15:28.416Z,6.30
2022-11-05T14:18:18.269Z,8.17
2022-11-05T14:20:57.592Z,7.30
2022-11-05T14:23:24.083Z,5.43
2022-11-05T14:25:50.573Z,6.27
2022-11-05T14:28:35.195Z,8.10
2022-11-05T14:31:47.289Z,5.60
2022-11-05T14:34:13.744Z,7.20
2022-11-05T14:36:41.178Z,5.93
2022-11-05T14:39:21.005Z,5.97
2022-11-05T14:41:56.820Z,9.77
2022-11-05T14:44:25.001Z,6.10
2022-11-05T14:46:55.096Z,9.23
2022-11-05T14:49:27.143Z,9.93
2022-11-05T14:51:56.583Z,9.87
2022-11-05T14:54:27.141Z,6.97
2022-11-05T14:56:59.383Z,10.20
2022-11-05T14:59:28.090Z,4.40
2022-11-05T15:02:02.831Z,8.80
2022-11-05T15:04:30.526Z,7.37
2022-11-05T15:07:23.221Z,8.57
2022-11-05T15:10:10.234Z,6.43
2022-11-05T15:12:45.647Z,7.27
2022-11-05T15:15:25.531Z,11.17
2022-11-05T15:18:01.518Z,8.33
2022-11-05T15:20:40.388Z,6.33
2022-11-05T15:23:11.343Z,8.57
2022-11-05T15:26:03.277Z,9.20
2022-11-05T15:28:48.676Z,4.97
2022-11-05T15:31:15.181Z,8.77
2022-11-05T15:33:43.505Z,8.33
2022-11-05T15:36:30.406Z,8.40
2022-11-05T15:41:46.373Z,7.47
2022-11-05T15:44:27.370Z,7.13
2022-11-05T15:47:14.932Z,5.50
2022-11-05T15:49:48.166Z,9.70
2022-11-05T15:52:17.700Z,8.60
2022-11-05T15:54:44.577Z,8.27
2022-11-05T15:57:27.012Z,6.07
2022-11-05T15:59:53.881Z,6.17
2022-11-05T16:02:35.243Z,8.47
2022-11-05T16:05:09.202Z,6.47
2022-11-05T16:07:35.875Z,8.73
2022-11-05T16:10:03.634Z,7.43
2022-11-05T16:12:36.793Z,8.27
2022-11-05T16:15:09.331Z,14.10
2022-11-05T16:17:57.706Z,10.73
2022-11-05T16:20:29.599Z,10.60
2022-11-05T16:23:21.558Z,7.17
2022-11-05T16:25:48.203Z,5.37
2022-11-05T16:28:25.028Z,13.27
2022-11-05T16:30:59.819Z,7.70
2022-11-05T16:33:47.822Z,8.20
2022-11-05T16:36:14.590Z,11.73
2022-11-05T16:38:41.199Z,7.70
2022-11-05T16:41:17.436Z,10.00
2022-11-05T16:43:58.984Z,8.53
2022-11-05T16:46:28.695Z,11.80
2022-11-05T16:48:56.323Z,9.23
2022-11-05T16:51:27.226Z,9.27
2022-11-05T16:53:54.089Z,10.63
2022-11-05T16:56:22.486Z,11.57
2022-11-05T16:58:49.904Z,8.23
2022-11-05T17:01:21.877Z,16.70
2022-11-05T17:03:49.820Z,11.60
2022-11-05T17:06:17.834Z,12.33
2022-11-05T17:08:44.799Z,8.23
2022-11-05T17:11:16.918Z,6.40
2022-11-05T17:13:44.352Z,12.87
2022-11-05T17:16:17.218Z,6.90
2022-11-05T17:18:44.392Z,8.70
2022-11-05T17:21:14.041Z,7.03
2022-11-05T17:23:40.641Z,11.83
2022-11-05T17:26:10.153Z,7.33
2022-11-05T17:28:37.814Z,9.83
2022-11-05T17:31:06.630Z,10.00
2022-11-05T17:33:33.258Z,14.47
2022-11-05T17:36:00.260Z,8.53
2022-11-05T17:38:27.489Z,7.20
2022-11-05T17:40:54.193Z,9.03
2022-11-05T17:43:21.025Z,10.83
2022-11-05T17:45:50.104Z,6.23
2022-11-05T17:48:17.475Z,9.03
2022-11-05T17:50:46.786Z,9.73
2022-11-05T17:53:15.414Z,11.33
2022-11-05T17:55:43.831Z,8.43
2022-11-05T17:58:11.173Z,8.77
2022-11-05T18:00:38.793Z,11.20
2022-11-05T18:03:05.391Z,9.47
2022-11-05T18:05:33.710Z,9.17
2022-11-05T18:08:00.485Z,9.43
2022-11-05T18:10:27.050Z,13.13
2022-11-05T18:12:54.127Z,10.13
2022-11-05T18:15:20.684Z,13.33
2022-11-05T18:17:47.529Z,10.67
2022-11-05T18:20:18.962Z,7.33
2022-11-05T18:22:48.798Z,10.50
2022-11-05T18:25:15.607Z,9.47
2022-11-05T18:27:42.267Z,9.57
2022-11-05T18:30:10.980Z,9.50
2022-11-05T18:32:37.758Z,11.03
2022-11-05T18:35:04.650Z,11.17
2022-11-05T18:37:31.209Z,8.00
2022-11-05T18:39:57.769Z,10.40
2022-11-05T18:42:25.287Z,13.40
2022-11-05T18:44:52.046Z,10.70
2022-11-05T18:47:18.619Z,11.93
2022-11-05T18:49:45.169Z,11.63
2022-11-05T18:52:11.911Z,8.93
2022-11-05T18:54:38.549Z,12.17
2022-11-05T18:57:05.100Z,9.50
2022-11-05T18:59:39.796Z,10.03
2022-11-05T19:02:08.464Z,12.67
2022-11-05T19:04:36.584Z,9.60
2022-11-05T19:07:05.454Z,11.00
2022-11-05T19:09:34.157Z,11.13
2022-11-05T19:12:01.135Z,12.37
2022-11-05T19:14:27.879Z,13.53
2022-11-05T19:16:54.442Z,11.40
2022-11-05T19:19:21.038Z,12.10
2022-11-05T19:21:47.635Z,13.57
2022-11-05T19:24:17.292Z,10.23
2022-11-05T19:26:44.506Z,12.83
2022-11-05T19:29:11.086Z,9.33
2022-11-05T19:31:37.684Z,12.13
2022-11-05T19:34:05.386Z,10.73
2022-11-05T19:36:33.253Z,10.40
2022-11-05T19:39:04.937Z,12.90
2022-11-05T19:41:31.489Z,11.43
2022-11-05T19:43:59.417Z,12.50
2022-11-05T19:46:26.070Z,9.77
2022-11-05T19:48:52.887Z,10.60
2022-11-05T19:51:22.600Z,10.83
2022-11-05T19:53:49.431Z,16.40
2022-11-05T19:56:21.855Z,15.03
2022-11-05T19:58:49.142Z,37.07
2022-11-05T20:01:17.580Z,26.73
2022-11-05T20:03:44.892Z,12.43
2022-11-05T20:06:15.147Z,10.37
2022-11-05T20:08:59.878Z,11.20
2022-11-05T20:11:29.171Z,14.33
2022-11-05T20:13:56.768Z,12.97
2022-11-05T20:16:29.068Z,12.60
2022-11-05T20:18:56.816Z,14.13
2022-11-05T20:21:23.601Z,16.43
2022-11-05T20:23:50.126Z,15.27
2022-11-05T20:26:16.760Z,14.67
2022-11-05T20:28:43.676Z,13.50
2022-11-05T20:31:15.349Z,31.07
2022-11-05T20:33:42.985Z,16.93
2022-11-05T20:36:15.422Z,13.77
2022-11-05T20:38:42.560Z,14.43
2022-11-05T20:41:11.744Z,12.20
2022-11-05T20:43:40.927Z,14.20
2022-11-05T20:46:09.348Z,16.20
2022-11-05T20:48:36.057Z,13.23
2022-11-05T20:51:08.032Z,14.50
2022-11-05T20:53:35.780Z,15.33
2022-11-05T20:56:07.603Z,16.23
2022-11-05T20:58:36.060Z,14.70
2022-11-05T21:01:04.463Z,15.40
2022-11-05T21:03:31.203Z,13.60
2022-11-05T21:06:00.826Z,13.47
2022-11-05T21:08:27.752Z,15.83
2022-11-05T21:10:55.262Z,18.97
2022-11-05T21:13:23.073Z,16.33
2022-11-05T21:15:55.229Z,15.10
2022-11-05T21:18:25.014Z,14.93
2022-11-05T21:20:52.163Z,16.87
2022-11-05T21:23:18.942Z,12.03
2022-11-05T21:25:46.104Z,20.97
2022-11-05T21:28:14.427Z,18.70
2022-11-05T21:30:47.413Z,15.67
2022-11-05T21:33:15.737Z,16.17
2022-11-05T21:35:45.108Z,15.07
2022-11-05T21:38:13.370Z,18.57
2022-11-05T21:40:40.528Z,14.03
2022-11-05T21:43:07.569Z,15.90
2022-11-05T21:45:34.130Z,14.30
2022-11-05T21:48:00.865Z,23.37
2022-11-05T21:50:53.409Z,14.20
2022-11-05T21:53:38.886Z,15.50
2022-11-05T21:56:39.079Z,14.57
2022-11-05T21:59:24.965Z,12.20
2022-11-05T22:02:01.156Z,17.87
2022-11-05T22:04:29.971Z,11.90
2022-11-05T22:06:56.987Z,14.43
2022-11-05T22:09:24.432Z,12.70
2022-11-05T22:11:51.358Z,11.93
2022-11-05T22:14:17.932Z,15.00
2022-11-05T22:16:44.571Z,13.33
2022-11-05T22:19:11.243Z,11.23
2022-11-05T22:21:38.122Z,12.77
2022-11-05T22:24:05.318Z,12.90
2022-11-05T22:26:32.246Z,12.43
2022-11-05T22:28:58.791Z,10.37
2022-11-05T22:31:25.370Z,14.97
2022-11-05T22:33:51.981Z,11.23
2022-11-05T22:36:18.529Z,12.93
2022-11-05T22:38:45.219Z,11.30
2022-11-05T22:41:19.925Z,11.13
2022-11-05T22:43:46.484Z,14.80
2022-11-05T22:46:15.297Z,14.67
2022-11-05T22:48:42.453Z,16.00
2022-11-05T22:51:14.916Z,17.20
2022-11-05T22:53:41.713Z,10.77
2022-11-05T22:56:13.962Z,11.43
2022-11-05T22:58:41.055Z,15.47
2022-11-05T23:01:09.301Z,12.00
2022-11-05T23:03:35.898Z,16.80
2022-11-05T23:06:05.497Z,11.80
2022-11-05T23:08:51.272Z,11.10
2022-11-05T23:11:35.699Z,10.77
2022-11-05T23:14:02.857Z,13.17
2022-11-05T23:16:48.017Z,14.23
2022-11-05T23:19:33.562Z,13.20
2022-11-05T23:22:19.024Z,14.37
2022-11-05T23:24:46.691Z,12.73
2022-11-05T23:27:13.629Z,16.07
2022-11-05T23:29:40.601Z,11.23
2022-11-05T23:32:25.660Z,11.07
2022-11-05T23:34:53.694Z,8.07
2022-11-05T23:37:40.241Z,14.00
2022-11-05T23:40:09.384Z,10.87
2022-11-05T23:42:54.540Z,14.63
2022-11-05T23:45:39.980Z,12.83
2022-11-05T23:48:22.400Z,11.03
2022-11-05T23:51:01.801Z,11.33
2022-11-05T23:53:29.796Z,10.10
2022-11-05T23:56:02.524Z,13.70
2022-11-05T23:58:29.148Z,12.90
